Skip Navigation Links
NOAA logo - Click to go to the NOAA homepage
NOAA's National Weather Service
Alaska Aviation Weather Unit
  NWS logo - Click to go to the NWS homepage
Left Navbar Graphic     02 AKDT = 10 GMT

   
NOAA is celebrating 200 years of science, service, and stewardship. Visit the NOAA 200th celebration Web site to learn more.
USA.gov is the U.S. Government's official Web portal to all Federal, state and local government Web resources and services.
Facebook
NWS on Facebook

AAWU Home :: Display TAF Add Bookmark
METAR PAVC 270456Z AUTO 05015G24KT 10SM OVC033 01/M07 A2940 RMK AO2
 SLP960 T00061067 FZRANO=

METAR PAVC 270556Z AUTO 06018G23KT 10SM OVC033 01/M07 A2939 RMK AO2
 PK WND 05026/0546 SLP957 T00061067 10028 20006 57004 FZRANO=

METAR PAVC 270656Z AUTO 04018KT 10SM OVC033 01/M06 A2939 RMK AO2
 RAB0558E09 SLP957 P0000 T00061061 FZRANO=

METAR PAVC 270756Z AUTO 04014KT 10SM OVC039 01/M07 A2939 RMK AO2 PK
 WND 04026/0724 SLP957 T00061067 400281033 FZRANO=

METAR PAVC 270956Z AUTO 05017KT 10SM SCT041 00/M07 A2937 RMK AO2
 SLP949 T00001072 FZRANO=


NOAA's National Weather Service
Alaska Aviation Weather Unit
6930 Sand Lake Road
Anchorage, AK 99502-1845
Disclaimer
Credits
Glossary
Privacy Policy
About Us
Career Opportunities
Contact AAWU Internet Services Site last modified: April, 17th 2012